Time;durP1;ratioP1;P1;durP2;ratioP2;P2;SDS_P1;SDS_P2;PMS_P1;PMS_P2;Temp;Humidity;BMP_temperature;BMP_pressure;BME280_temperature;BME280_humidity;BME280_pressure;Samples;Min_cycle;Max_cycle;Signal;HPM_P1;HPM_P2
2022/08/06 00:00:20;;;;;;;8.93;8.03;;;;;;;16.57;100.00;100729.16;1735371;82;21077;-43
2022/08/06 00:02:47;;;;;;;9.68;8.78;;;;;;;16.56;100.00;100730.51;1739817;82;21320;-44
2022/08/06 00:05:14;;;;;;;13.18;8.38;;;;;;;16.54;100.00;100728.41;1743457;81;20990;-44
2022/08/06 00:07:42;;;;;;;11.68;7.90;;;;;;;16.52;100.00;100733.24;1743568;82;20938;-44
2022/08/06 00:10:09;;;;;;;12.47;8.55;;;;;;;16.49;100.00;100731.20;1743635;81;20945;-43
2022/08/06 00:12:36;;;;;;;14.87;8.88;;;;;;;16.45;100.00;100726.56;1742647;82;21182;-44
2022/08/06 00:15:05;;;;;;;9.28;8.15;;;;;;;16.41;100.00;100726.73;1743522;82;21134;-44
2022/08/06 00:17:32;;;;;;;11.90;9.18;;;;;;;16.37;100.00;100722.94;1743283;81;21029;-43
2022/08/06 00:20:00;;;;;;;21.23;9.18;;;;;;;16.38;100.00;100721.16;1743441;81;20929;-43
2022/08/06 00:22:27;;;;;;;17.12;9.40;;;;;;;16.40;100.00;100726.34;1743711;81;20937;-44
2022/08/06 00:24:54;;;;;;;18.82;9.05;;;;;;;16.40;100.00;100727.64;1742531;82;20973;-43
2022/08/06 00:27:21;;;;;;;16.23;9.28;;;;;;;16.40;100.00;100721.11;1743192;82;21222;-44
2022/08/06 00:29:49;;;;;;;22.67;8.55;;;;;;;16.40;100.00;100726.34;1742859;81;20954;-43
2022/08/06 00:32:16;;;;;;;14.50;8.80;;;;;;;16.38;100.00;100722.02;1743402;82;21015;-44
2022/08/06 00:34:44;;;;;;;11.97;8.40;;;;;;;16.38;100.00;100723.77;1743123;82;20909;-43
2022/08/06 00:37:11;;;;;;;12.98;8.85;;;;;;;16.38;100.00;100725.08;1739594;82;21468;-43
2022/08/06 00:39:38;;;;;;;16.93;8.38;;;;;;;16.37;100.00;100721.63;1742888;81;21221;-43
2022/08/06 00:42:05;;;;;;;18.23;8.95;;;;;;;16.35;100.00;100719.53;1743504;81;21014;-44
2022/08/06 00:44:34;;;;;;;13.65;8.83;;;;;;;16.33;100.00;100718.75;1756048;81;20945;-43
2022/08/06 00:47:01;;;;;;;12.43;8.73;;;;;;;16.30;100.00;100721.92;1743390;82;20973;-43
2022/08/06 00:49:28;;;;;;;9.98;8.15;;;;;;;16.27;100.00;100721.57;1741112;81;20970;-43
2022/08/06 00:51:55;;;;;;;12.93;8.95;;;;;;;16.26;100.00;100719.87;1736975;82;21203;-43
2022/08/06 00:54:22;;;;;;;11.65;8.85;;;;;;;16.25;100.00;100714.25;1733896;82;22304;-44
2022/08/06 00:56:49;;;;;;;16.17;8.30;;;;;;;16.25;100.00;100722.09;1702775;82;20965;-44
2022/08/06 00:59:16;;;;;;;15.53;8.58;;;;;;;16.28;100.00;100723.74;1737227;82;21037;-43
2022/08/06 01:01:43;;;;;;;13.50;9.03;;;;;;;16.26;100.00;100723.78;1731267;82;20986;-43
2022/08/06 01:04:09;;;;;;;12.98;9.00;;;;;;;16.26;100.00;100725.56;1735438;82;21828;-44
2022/08/06 01:06:37;;;;;;;11.28;8.35;;;;;;;16.23;100.00;100736.96;1736044;81;20977;-43
2022/08/06 01:09:04;;;;;;;12.63;8.55;;;;;;;16.21;100.00;100732.26;1733517;82;21080;-43
2022/08/06 01:11:31;;;;;;;10.25;9.13;;;;;;;16.21;100.00;100730.95;1733964;82;20982;-42
2022/08/06 01:13:58;;;;;;;12.98;8.70;;;;;;;16.21;100.00;100740.09;1735828;82;20942;-42
2022/08/06 01:16:35;;;;;;;9.63;8.68;;;;;;;16.20;100.00;100730.12;1731662;82;21310;-42
2022/08/06 01:19:24;;;;;;;10.35;9.08;;;;;;;16.23;100.00;100731.30;1734287;82;21088;-42
2022/08/06 01:22:11;;;;;;;14.60;9.18;;;;;;;16.25;100.00;100724.70;1737002;82;20946;-44
2022/08/06 01:25:19;;;;;;;10.98;9.20;;;;;;;16.26;100.00;100722.48;1734603;82;21444;-44
2022/08/06 01:28:00;;;;;;;15.10;8.98;;;;;;;16.25;100.00;100719.95;1733683;82;21052;-43
2022/08/06 01:30:34;;;;;;;18.02;8.83;;;;;;;16.22;100.00;100712.63;1733670;81;21267;-44
2022/08/06 01:33:11;;;;;;;10.08;8.45;;;;;;;16.21;100.00;100716.59;1731216;81;21041;-43
2022/08/06 01:35:41;;;;;;;9.30;8.40;;;;;;;16.20;100.00;100717.06;1726036;82;21019;-44
2022/08/06 01:38:19;;;;;;;20.17;8.18;;;;;;;16.17;100.00;100713.26;1733830;82;20970;-44
2022/08/06 01:40:47;;;;;;;13.40;8.90;;;;;;;16.16;100.00;100717.22;1737493;82;21029;-43
2022/08/06 01:43:15;;;;;;;9.80;8.18;;;;;;;16.16;100.00;100717.22;1738066;82;21250;-43
2022/08/06 01:45:42;;;;;;;12.40;8.65;;;;;;;16.15;100.00;100720.27;1737320;82;20930;-43
2022/08/06 01:48:13;;;;;;;12.82;7.85;;;;;;;16.13;100.00;100714.73;1743203;81;20993;-43
2022/08/06 01:50:44;;;;;;;14.38;8.48;;;;;;;16.06;100.00;100717.58;1749669;81;21687;-44
2022/08/06 01:53:15;;;;;;;20.48;8.93;;;;;;;16.01;100.00;100715.56;1756692;81;20975;-43
2022/08/06 01:55:45;;;;;;;12.43;7.35;;;;;;;15.97;100.00;100714.45;1752672;81;21966;-44
2022/08/06 01:58:12;;;;;;;11.85;7.92;;;;;;;15.94;100.00;100712.80;1737727;81;20950;-44
2022/08/06 02:00:41;;;;;;;10.25;7.45;;;;;;;15.89;100.00;100713.42;1752563;81;21443;-44
2022/08/06 02:03:14;;;;;;;10.82;7.37;;;;;;;15.87;100.00;100716.05;1754451;81;21559;-44
2022/08/06 02:05:41;;;;;;;15.00;8.30;;;;;;;15.86;100.00;100716.95;1752444;81;20989;-44
2022/08/06 02:08:08;;;;;;;14.75;7.97;;;;;;;15.85;100.00;100717.02;1756214;81;21250;-44
2022/08/06 02:10:36;;;;;;;9.18;8.08;;;;;;;15.82;100.00;100712.75;1755525;81;20964;-44
2022/08/06 02:13:03;;;;;;;9.28;8.38;;;;;;;15.79;100.00;100705.91;1756578;81;21523;-44
2022/08/06 02:15:30;;;;;;;11.35;8.68;;;;;;;15.76;100.00;100707.30;1728770;81;20983;-44
2022/08/06 02:17:58;;;;;;;11.78;8.00;;;;;;;15.75;100.00;100699.07;1756629;81;21023;-44
2022/08/06 02:20:33;;;;;;;12.37;8.00;;;;;;;15.76;100.00;100705.99;1756810;81;21166;-44
2022/08/06 02:23:02;;;;;;;9.00;8.18;;;;;;;15.75;100.00;100700.84;1753837;80;21010;-44
2022/08/06 02:25:30;;;;;;;10.18;8.48;;;;;;;15.73;100.00;100707.88;1758116;80;21023;-44
2022/08/06 02:27:58;;;;;;;9.15;8.00;;;;;;;15.75;100.00;100703.45;1754791;81;21541;-44
2022/08/06 02:30:25;;;;;;;10.45;7.72;;;;;;;15.75;100.00;100709.98;1752901;80;21007;-44
2022/08/06 02:32:52;;;;;;;11.15;7.45;;;;;;;15.75;100.00;100712.12;1740983;81;21028;-45
2022/08/06 02:35:19;;;;;;;12.33;9.50;;;;;;;15.76;100.00;100705.16;1756416;81;20985;-45
2022/08/06 02:37:52;;;;;;;12.70;8.80;;;;;;;15.74;100.00;100697.37;1729168;81;20926;-45
2022/08/06 02:40:27;;;;;;;8.98;8.10;;;;;;;15.75;100.00;100706.90;1756038;81;21005;-44
2022/08/06 02:43:10;;;;;;;12.43;8.80;;;;;;;15.75;100.00;100711.28;1756262;81;20948;-44
2022/08/06 02:46:13;;;;;;;9.03;8.23;;;;;;;15.76;100.00;100703.38;1718590;83;21510;-45
2022/08/06 02:48:47;;;;;;;13.05;9.35;;;;;;;15.80;100.00;100709.35;1719539;83;21003;-45
2022/08/06 02:51:22;;;;;;;9.65;8.70;;;;;;;15.85;100.00;100718.33;1710760;83;21003;-45
2022/08/06 02:54:12;;;;;;;19.98;10.03;;;;;;;15.89;100.00;100718.17;1726117;82;20905;-45
2022/08/06 02:56:43;;;;;;;10.88;7.90;;;;;;;15.90;100.00;100710.73;1743743;81;20961;-45
2022/08/06 02:59:10;;;;;;;9.83;8.85;;;;;;;15.95;100.00;100718.41;1741374;82;21238;-44
2022/08/06 03:01:40;;;;;;;10.45;8.63;;;;;;;16.00;100.00;100720.39;1743483;81;21523;-45
2022/08/06 03:04:07;;;;;;;12.20;8.35;;;;;;;16.04;100.00;100716.78;1739494;81;21037;-45
2022/08/06 03:06:35;;;;;;;8.98;8.13;;;;;;;16.09;100.00;100712.23;1743598;82;20981;-44
2022/08/06 03:09:03;;;;;;;9.08;8.18;;;;;;;16.15;100.00;100714.22;1743502;82;21059;-45
2022/08/06 03:11:33;;;;;;;8.53;7.80;;;;;;;16.23;100.00;100725.20;1743558;82;21398;-45
2022/08/06 03:14:02;;;;;;;12.75;8.50;;;;;;;16.28;100.00;100718.05;1742501;82;20978;-45
2022/08/06 03:16:30;;;;;;;10.90;8.68;;;;;;;16.38;100.00;100722.02;1743688;81;22162;-45
2022/08/06 03:18:58;;;;;;;12.58;8.18;;;;;;;16.43;100.00;100717.94;1743552;81;20990;-44
2022/08/06 03:21:24;;;;;;;11.90;8.40;;;;;;;16.48;100.00;100724.27;1743467;82;20938;-44
2022/08/06 03:23:51;;;;;;;9.13;8.18;;;;;;;16.52;100.00;100716.27;1728873;82;21213;-44
2022/08/06 03:26:18;;;;;;;11.15;8.88;;;;;;;16.56;100.00;100713.08;1737945;82;21543;-44
2022/08/06 03:28:45;;;;;;;10.93;8.20;;;;;;;16.59;100.00;100713.41;1743505;81;20950;-44
2022/08/06 03:31:12;;;;;;;12.50;8.65;;;;;;;16.62;100.00;100714.14;1728743;82;20984;-44
2022/08/06 03:33:39;;;;;;;9.30;8.25;;;;;;;16.65;100.00;100719.24;1742705;80;20976;-45
2022/08/06 03:36:07;;;;;;;13.80;8.40;;;;;;;16.65;100.00;100721.86;1743564;81;21236;-44
2022/08/06 03:38:45;;;;;;;8.73;7.78;;;;;;;16.68;100.00;100720.03;1733076;82;20950;-44
2022/08/06 03:41:12;;;;;;;10.00;8.10;;;;;;;16.70;100.00;100722.98;1739053;82;21500;-45
2022/08/06 03:43:39;;;;;;;13.40;8.25;;;;;;;16.76;100.00;100721.87;1726517;82;21011;-44
2022/08/06 03:46:07;;;;;;;11.68;8.03;;;;;;;16.76;100.00;100731.88;1743412;81;21000;-45
2022/08/06 03:48:38;;;;;;;10.03;8.20;;;;;;;16.76;100.00;100729.70;1743543;82;21207;-44
2022/08/06 03:51:12;;;;;;;12.20;8.75;;;;;;;16.76;100.00;100731.02;1739885;81;20981;-44
2022/08/06 03:53:41;;;;;;;13.48;8.00;;;;;;;16.80;100.00;100732.15;1732724;81;20963;-43
2022/08/06 03:56:07;;;;;;;11.05;8.25;;;;;;;16.81;100.00;100739.08;1738122;82;20942;-44
2022/08/06 03:58:37;;;;;;;10.03;9.03;;;;;;;16.80;100.00;100735.23;1727009;80;20938;-44
2022/08/06 04:01:09;;;;;;;9.08;8.20;;;;;;;16.78;100.00;100730.50;1737625;81;21783;-45
2022/08/06 04:03:36;;;;;;;9.88;8.88;;;;;;;16.77;100.00;100725.74;1731298;82;21060;-44
2022/08/06 04:06:03;;;;;;;13.60;8.15;;;;;;;16.80;100.00;100728.23;1737146;82;20947;-44
2022/08/06 04:08:31;;;;;;;9.55;8.58;;;;;;;16.82;100.00;100724.26;1734925;82;20954;-44
2022/08/06 04:10:58;;;;;;;11.45;9.30;;;;;;;16.86;100.00;100725.83;1736927;81;21034;-44
2022/08/06 04:13:26;;;;;;;18.15;9.05;;;;;;;16.94;100.00;100726.83;1728697;82;21264;-44
2022/08/06 04:15:54;;;;;;;13.78;9.88;;;;;;;17.00;100.00;100725.74;1721635;83;20942;-44
2022/08/06 04:18:31;;;;;;;10.10;9.20;;;;;;;17.14;100.00;100734.32;1721450;82;21048;-44
2022/08/06 04:21:00;;;;;;;10.25;8.88;;;;;;;17.41;100.00;100737.55;1721483;82;20975;-45
2022/08/06 04:23:27;;;;;;;10.23;9.18;;;;;;;17.81;100.00;100739.76;1709720;82;20993;-44
2022/08/06 04:25:56;;;;;;;10.43;8.38;;;;;;;18.22;100.00;100730.11;1692675;84;21049;-45
2022/08/06 04:28:24;;;;;;;14.80;9.13;;;;;;;18.58;100.00;100742.42;1692734;84;20984;-45
2022/08/06 04:30:51;;;;;;;9.05;8.23;;;;;;;18.84;100.00;100735.52;1692847;84;20993;-45
2022/08/06 04:33:21;;;;;;;16.80;8.08;;;;;;;19.09;100.00;100734.73;1709935;83;21448;-43
2022/08/06 04:35:49;;;;;;;8.63;7.53;;;;;;;19.23;100.00;100731.41;1721529;82;20989;-43
2022/08/06 04:38:21;;;;;;;9.23;7.45;;;;;;;19.31;100.00;100728.85;1721575;83;21853;-43
2022/08/06 04:40:48;;;;;;;12.65;8.23;;;;;;;19.47;100.00;100735.50;1721617;83;21020;-43
2022/08/06 04:43:15;;;;;;;10.13;8.43;;;;;;;19.63;100.00;100739.02;1719445;82;20993;-43
2022/08/06 04:45:43;;;;;;;10.08;7.87;;;;;;;19.75;100.00;100740.14;1721310;83;20926;-44
2022/08/06 04:48:11;;;;;;;9.08;8.18;;;;;;;19.93;100.00;100740.98;1721460;83;20938;-45
2022/08/06 04:50:38;;;;;;;10.40;8.65;;;;;;;20.13;100.00;100748.26;1729686;81;21663;-45
2022/08/06 04:53:14;;;;;;;11.40;7.95;;;;;;;20.37;100.00;100736.02;1728382;81;20928;-43
2022/08/06 04:55:42;;;;;;;11.18;7.67;;;;;;;20.50;100.00;100730.93;1756962;81;20896;-44
2022/08/06 04:58:11;;;;;;;10.75;8.25;;;;;;;20.58;100.00;100743.17;1756940;81;20972;-43
2022/08/06 05:00:43;;;;;;;13.98;8.93;;;;;;;20.72;100.00;100741.11;1755244;81;20932;-44
2022/08/06 05:03:10;;;;;;;11.03;7.72;;;;;;;20.96;100.00;100738.00;1752295;81;21152;-44
2022/08/06 05:05:45;;;;;;;13.58;8.10;;;;;;;21.21;100.00;100732.63;1751030;82;20944;-44
2022/08/06 05:08:12;;;;;;;8.43;7.15;;;;;;;21.48;100.00;100737.22;1750735;82;21011;-44
2022/08/06 05:10:55;;;;;;;8.65;7.72;;;;;;;21.72;100.00;100750.70;1751209;82;20990;-44
2022/08/06 05:13:22;;;;;;;7.70;6.92;;;;;;;21.92;100.00;100739.42;1751307;81;21623;-44
2022/08/06 05:15:53;;;;;;;7.83;6.95;;;;;;;22.04;100.00;100740.45;1751158;82;21127;-44
2022/08/06 05:18:27;;;;;;;10.78;7.47;;;;;;;22.04;100.00;100743.91;1751024;82;20908;-43
2022/08/06 05:20:55;;;;;;;8.98;7.37;;;;;;;22.01;100.00;100737.52;1723428;82;20995;-44
2022/08/06 05:23:33;;;;;;;7.37;6.67;;;;;;;22.05;100.00;100738.19;1751169;81;21461;-43
2022/08/06 05:26:00;;;;;;;11.38;7.67;;;;;;;22.06;100.00;100738.56;1748906;82;21030;-45
2022/08/06 05:28:27;;;;;;;8.35;7.28;;;;;;;21.98;100.00;100737.72;1751285;82;21114;-44
2022/08/06 05:30:55;;;;;;;8.93;7.10;;;;;;;21.92;100.00;100742.05;1751270;82;20983;-44
2022/08/06 05:33:31;;;;;;;9.45;7.70;;;;;;;21.91;100.00;100741.68;1751413;81;21434;-44
2022/08/06 05:35:59;;;;;;;7.92;7.17;;;;;;;21.93;100.00;100740.62;1751446;81;21022;-44
2022/08/06 05:38:27;;;;;;;8.98;7.20;;;;;;;22.02;100.00;100745.80;1751196;82;20986;-45
2022/08/06 05:40:56;;;;;;;10.25;7.53;;;;;;;22.15;100.00;100745.05;1751058;82;21394;-45
2022/08/06 05:43:23;;;;;;;9.18;6.95;;;;;;;22.30;100.00;100749.82;1751094;82;20908;-44
2022/08/06 05:45:54;;;;;;;10.58;6.75;;;;;;;22.44;100.00;100739.71;1751292;81;20951;-44
2022/08/06 05:48:21;;;;;;;8.75;6.87;;;;;;;22.50;100.00;100744.61;1751124;81;21018;-44
2022/08/06 05:50:58;;;;;;;7.33;6.62;;;;;;;22.55;100.00;100750.92;1748834;82;21132;-44
2022/08/06 05:53:32;;;;;;;8.55;6.60;;;;;;;22.65;100.00;100752.87;1737405;82;22230;-44
2022/08/06 05:56:08;;;;;;;13.13;7.08;;;;;;;22.71;100.00;100756.05;1737907;82;20995;-44
2022/08/06 05:58:56;;;;;;;;;;;;;;;22.70;100.00;100755.19;1710714;83;20960;-44
2022/08/06 06:01:23;;;;;;;11.08;7.20;;;;;;;22.77;100.00;100760.45;1693560;84;20678;-44
2022/08/06 06:06:49;;;;;;;9.30;7.47;;;;;;;23.09;100.00;100741.64;1815392;79;22551;-44
2022/08/06 06:09:16;;;;;;;8.13;7.12;;;;;;;23.08;100.00;100747.01;1788299;80;20979;-44
2022/08/06 06:11:43;;;;;;;7.92;7.17;;;;;;;23.16;100.00;100739.90;1788673;80;21963;-44
2022/08/06 06:14:31;;;;;;;8.23;7.25;;;;;;;23.31;100.00;100736.72;1782275;80;20982;-44
2022/08/06 06:17:21;;;;;;;8.10;7.30;;;;;;;23.40;100.00;100736.12;1746418;81;21001;-44
2022/08/06 06:20:15;;;;;;;8.58;7.00;;;;;;;23.47;100.00;100731.23;1746655;82;21622;-44
2022/08/06 06:22:59;;;;;;;9.55;7.00;;;;;;;23.61;100.00;100731.14;1746638;81;20976;-44
2022/08/06 06:25:34;;;;;;;7.50;6.80;;;;;;;23.81;100.00;100732.38;1768261;80;21091;-44
2022/08/06 06:28:06;;;;;;;7.20;6.60;;;;;;;23.95;100.00;100730.58;1787677;80;20974;-44
2022/08/06 06:30:48;;;;;;;7.75;6.95;;;;;;;24.08;100.00;100734.05;1788687;80;20955;-44
2022/08/06 06:33:41;;;;;;;7.03;6.40;;;;;;;24.14;100.00;100737.23;1788253;80;21485;-45
2022/08/06 06:36:13;;;;;;;7.83;6.17;;;;;;;24.22;100.00;100734.88;1787937;80;20975;-44
2022/08/06 06:38:54;;;;;;;6.60;6.15;;;;;;;24.32;100.00;100731.09;1784982;80;21234;-44
2022/08/06 06:41:30;;;;;;;6.28;5.72;;;;;;;24.40;100.00;100719.47;1777059;80;20983;-44
2022/08/06 06:44:28;;;;;;;8.08;7.30;;;;;;;24.44;100.00;100728.04;1788039;80;21204;-45
2022/08/06 06:47:09;;;;;;;6.95;6.33;;;;;;;24.44;100.00;100725.39;1764449;80;21054;-44
2022/08/06 06:49:58;;;;;;;9.65;6.12;;;;;;;24.43;100.00;100721.06;1764195;80;22171;-44
2022/08/06 06:52:31;;;;;;;7.35;6.53;;;;;;;24.43;100.00;100719.73;1778798;80;21310;-44
2022/08/06 06:55:26;;;;;;;6.47;5.92;;;;;;;24.45;100.00;100719.14;1757397;80;20984;-45
2022/08/06 06:58:00;;;;;;;7.45;6.72;;;;;;;24.48;98.54;100724.20;1757378;81;21472;-44
2022/08/06 07:00:27;;;;;;;8.85;6.30;;;;;;;24.49;96.97;100728.54;1756512;81;20987;-44
2022/08/06 07:02:54;;;;;;;7.00;6.08;;;;;;;24.54;97.08;100725.07;1768630;80;20916;-44
2022/08/06 07:05:22;;;;;;;11.48;5.92;;;;;;;24.65;96.68;100725.14;1781155;80;21768;-44
2022/08/06 07:07:49;;;;;;;6.17;5.58;;;;;;;24.73;91.75;100725.05;1779086;80;21585;-44
2022/08/06 07:10:17;;;;;;;6.30;5.70;;;;;;;24.74;89.45;100728.05;1785302;80;20968;-44
2022/08/06 07:12:44;;;;;;;6.67;6.15;;;;;;;24.75;93.45;100733.74;1745404;81;21486;-44
2022/08/06 07:15:12;;;;;;;8.23;5.70;;;;;;;24.91;95.65;100730.79;1747681;82;20939;-44
2022/08/06 07:17:39;;;;;;;6.70;6.15;;;;;;;25.08;93.20;100733.48;1764538;80;21052;-44
2022/08/06 07:20:08;;;;;;;12.45;6.30;;;;;;;25.23;92.43;100731.47;1780474;80;20991;-44
2022/08/06 07:22:37;;;;;;;6.95;6.12;;;;;;;25.41;91.49;100733.21;1779500;80;20881;-44
2022/08/06 07:25:06;;;;;;;7.00;6.37;;;;;;;25.52;89.68;100730.59;1753737;80;21007;-44
2022/08/06 07:27:41;;;;;;;8.65;6.37;;;;;;;25.63;91.35;100731.55;1754960;80;20987;-45
2022/08/06 07:30:10;;;;;;;7.53;6.10;;;;;;;25.77;91.21;100730.00;1776300;80;21123;-44
2022/08/06 07:32:37;;;;;;;7.22;6.25;;;;;;;25.98;92.28;100733.24;1741170;81;21530;-44
2022/08/06 07:35:06;;;;;;;7.05;6.50;;;;;;;26.17;87.81;100731.31;1751951;81;21532;-44
2022/08/06 07:37:35;;;;;;;5.80;5.35;;;;;;;26.32;88.50;100727.91;1779157;80;21581;-44
2022/08/06 07:40:04;;;;;;;8.38;6.20;;;;;;;26.53;86.42;100731.95;1752900;80;20982;-44
2022/08/06 07:42:31;;;;;;;9.40;5.83;;;;;;;26.74;86.89;100727.65;1778306;80;21866;-45
2022/08/06 07:45:02;;;;;;;8.53;5.90;;;;;;;26.94;85.63;100728.19;1771545;80;20995;-44
2022/08/06 07:47:34;;;;;;;7.10;5.85;;;;;;;27.19;86.78;100727.92;1771171;80;20994;-45
2022/08/06 07:50:01;;;;;;;7.08;5.95;;;;;;;27.44;80.97;100727.15;1778392;80;21479;-45
2022/08/06 07:52:28;;;;;;;7.70;5.47;;;;;;;27.53;78.44;100730.36;1774068;80;20971;-45
2022/08/06 07:54:55;;;;;;;8.90;5.90;;;;;;;27.53;78.27;100727.70;1784744;80;21536;-45
2022/08/06 07:57:23;;;;;;;7.10;5.62;;;;;;;27.62;77.89;100730.05;1785099;80;20916;-45
2022/08/06 07:59:50;;;;;;;5.60;5.20;;;;;;;27.66;77.72;100720.84;1784794;80;20968;-45
2022/08/06 08:02:18;;;;;;;10.25;5.75;;;;;;;27.76;75.91;100728.85;1780231;80;20992;-45
2022/08/06 08:07:31;;;;;;;6.12;5.55;;;;;;;27.79;76.83;100720.63;1717208;83;21671;-45
2022/08/06 08:09:58;;;;;;;6.15;5.53;;;;;;;27.95;77.05;100722.78;1717621;83;21039;-44
2022/08/06 08:12:26;;;;;;;7.72;4.97;;;;;;;28.11;76.48;100717.76;1740059;82;20968;-45
2022/08/06 08:14:53;;;;;;;12.10;5.35;;;;;;;28.32;74.87;100716.85;1746458;82;20980;-44
2022/08/06 08:17:20;;;;;;;6.10;5.60;;;;;;;28.45;70.75;100723.74;1742017;82;20940;-45
2022/08/06 08:19:47;;;;;;;5.80;5.22;;;;;;;28.49;71.71;100723.30;1744591;82;21209;-45
2022/08/06 08:22:16;;;;;;;6.25;5.30;;;;;;;28.51;70.93;100713.35;1745848;82;21576;-44
2022/08/06 08:24:45;;;;;;;8.45;5.03;;;;;;;28.53;68.88;100711.90;1742528;82;21642;-45
2022/08/06 08:27:12;;;;;;;6.03;5.10;;;;;;;28.68;74.38;100706.98;1740794;82;21505;-44
2022/08/06 08:29:40;;;;;;;10.43;5.58;;;;;;;28.90;71.21;100713.03;1743114;82;21115;-44
2022/08/06 08:32:08;;;;;;;9.05;5.97;;;;;;;28.77;70.08;100720.77;1726536;82;22141;-44
2022/08/06 08:34:39;;;;;;;7.80;5.33;;;;;;;28.42;70.64;100725.32;1747268;82;20972;-45
2022/08/06 08:37:04;;;;;;;8.40;5.67;;;;;;;28.05;72.48;100722.81;1746027;82;20964;-44
2022/08/06 08:39:31;;;;;;;6.92;5.90;;;;;;;27.70;74.65;100725.41;1747323;82;21031;-44
2022/08/06 08:42:13;;;;;;;6.30;5.60;;;;;;;27.53;75.23;100728.56;1747434;82;21062;-45
2022/08/06 08:44:40;;;;;;;10.58;5.53;;;;;;;27.51;77.77;100727.86;1747391;82;21232;-45
2022/08/06 08:47:09;;;;;;;10.40;5.95;;;;;;;27.66;77.62;100722.16;1747115;82;21019;-44
2022/08/06 08:49:39;;;;;;;6.17;5.65;;;;;;;27.94;76.73;100725.09;1747651;82;20948;-45
2022/08/06 08:52:08;;;;;;;6.40;5.90;;;;;;;28.33;76.19;100717.20;1747342;82;20979;-45
2022/08/06 08:54:36;;;;;;;7.20;6.60;;;;;;;28.78;74.78;100714.97;1747537;81;20944;-45
2022/08/06 08:57:04;;;;;;;7.17;6.50;;;;;;;29.10;70.90;100723.16;1747188;82;21684;-44
2022/08/06 08:59:32;;;;;;;7.70;5.80;;;;;;;29.25;71.11;100720.39;1739317;82;21569;-45
2022/08/06 09:01:59;;;;;;;6.25;5.78;;;;;;;29.29;68.87;100720.10;1747169;82;20951;-44
2022/08/06 09:04:26;;;;;;;6.45;5.90;;;;;;;29.33;67.94;100721.48;1730947;82;20993;-45
2022/08/06 09:06:54;;;;;;;9.83;5.33;;;;;;;29.44;67.69;100717.36;1765204;80;20923;-45
2022/08/06 09:09:21;;;;;;;8.10;5.45;;;;;;;29.54;68.63;100719.48;1766007;80;21233;-45
2022/08/06 09:11:48;;;;;;;5.45;4.97;;;;;;;29.69;68.60;100717.68;1749729;80;20970;-44
2022/08/06 09:14:15;;;;;;;8.23;4.90;;;;;;;29.82;67.31;100724.00;1740708;80;20983;-46
2022/08/06 09:16:42;;;;;;;6.05;5.45;;;;;;;29.95;68.75;100715.65;1772297;80;20943;-44
2022/08/06 09:19:09;;;;;;;5.35;4.90;;;;;;;30.25;67.83;100719.00;1782795;80;21011;-45
2022/08/06 09:21:36;;;;;;;5.97;5.40;;;;;;;30.52;66.64;100721.25;1764642;80;22276;-45
2022/08/06 09:24:04;;;;;;;6.35;5.70;;;;;;;30.67;64.60;100713.56;1748743;82;20962;-45
2022/08/06 09:26:33;;;;;;;7.62;5.37;;;;;;;30.83;65.43;100720.87;1744267;82;21059;-43
2022/08/06 09:28:59;;;;;;;7.25;5.42;;;;;;;30.81;62.80;100715.67;1749807;80;20951;-44
2022/08/06 09:31:26;;;;;;;6.12;5.30;;;;;;;30.63;62.98;100711.69;1755168;80;20994;-46
2022/08/06 09:34:01;;;;;;;5.53;4.87;;;;;;;30.62;61.42;100709.19;1743400;80;21252;-45
2022/08/06 09:36:28;;;;;;;;;;;;;;;30.46;62.99;100714.69;1754474;80;21544;-45
2022/08/06 09:38:59;;;;;;;5.75;5.25;;;;;;;30.25;62.93;100716.33;1752772;80;20071;-45
2022/08/06 09:41:28;;;;;;;5.83;5.33;;;;;;;30.25;62.81;100717.66;1742695;82;21612;-45
2022/08/06 09:43:57;;;;;;;7.22;4.95;;;;;;;30.24;62.63;100715.98;1746082;82;21015;-45
2022/08/06 09:46:49;;;;;;;9.05;5.55;;;;;;;30.21;62.42;100718.45;1749797;80;21524;-44
2022/08/06 09:49:18;;;;;;;7.47;5.70;;;;;;;30.25;62.15;100710.98;1731691;80;20939;-45
2022/08/06 09:51:46;;;;;;;10.38;5.58;;;;;;;30.34;61.63;100707.91;1720342;80;21005;-45
2022/08/06 09:54:15;;;;;;;6.45;4.85;;;;;;;30.31;62.77;100698.37;1718638;83;21552;-44
2022/08/06 09:56:43;;;;;;;5.78;5.08;;;;;;;30.31;62.07;100697.03;1718928;83;21065;-44
2022/08/06 09:59:12;;;;;;;5.58;4.97;;;;;;;30.32;61.40;100701.37;1718905;83;21267;-44
2022/08/06 10:01:46;;;;;;;6.08;5.12;;;;;;;30.28;61.36;100699.16;1719090;83;21518;-45
2022/08/06 10:04:25;;;;;;;;;;;;;;;30.32;61.03;100701.89;1721504;83;20947;-45
2022/08/06 10:06:58;;;;;;;8.63;5.05;;;;;;;30.42;59.43;100703.12;1735846;82;20092;-44
2022/08/06 10:09:27;;;;;;;7.35;5.15;;;;;;;30.32;59.21;100697.38;1751923;82;21470;-44
2022/08/06 10:11:54;;;;;;;5.78;4.90;;;;;;;30.44;62.15;100701.98;1751523;82;21132;-44
2022/08/06 10:14:33;;;;;;;9.63;5.00;;;;;;;30.72;60.35;100695.23;1724465;82;21557;-44
2022/08/06 10:17:12;;;;;;;9.38;4.50;;;;;;;30.77;59.47;100698.28;1751627;80;21010;-44
2022/08/06 10:19:41;;;;;;;6.00;4.53;;;;;;;30.75;62.41;100698.93;1750096;81;21517;-44
2022/08/06 10:22:16;;;;;;;4.97;4.50;;;;;;;30.93;57.56;100698.89;1751681;82;21087;-44
2022/08/06 10:24:46;;;;;;;7.30;4.30;;;;;;;30.80;57.37;100699.30;1752026;82;22076;-45
2022/08/06 10:27:19;;;;;;;10.45;4.22;;;;;;;30.68;59.29;100700.04;1751737;82;21497;-45
2022/08/06 10:29:50;;;;;;;8.50;4.15;;;;;;;30.87;60.59;100696.85;1751910;82;20905;-45
2022/08/06 10:32:49;;;;;;;4.42;3.95;;;;;;;31.00;58.15;100692.43;1751782;82;21007;-48
2022/08/06 10:35:17;;;;;;;7.25;4.40;;;;;;;30.91;57.96;100699.55;1751928;82;20900;-45
2022/08/06 10:37:47;;;;;;;6.40;3.98;;;;;;;30.83;57.74;100695.48;1751690;82;21160;-45
2022/08/06 10:40:15;;;;;;;4.92;4.50;;;;;;;30.84;57.05;100703.02;1751955;81;20979;-45
2022/08/06 10:42:42;;;;;;;4.28;3.92;;;;;;;30.89;58.39;100701.53;1751719;82;20955;-46
2022/08/06 10:45:11;;;;;;;5.78;4.62;;;;;;;31.09;59.74;100699.52;1751731;81;20995;-45
2022/08/06 10:47:41;;;;;;;5.50;4.22;;;;;;;31.39;59.80;100698.71;1752007;81;20995;-45
2022/08/06 10:50:10;;;;;;;5.10;4.25;;;;;;;31.62;57.35;100692.80;1752027;82;21967;-45
2022/08/06 10:52:37;;;;;;;5.22;4.33;;;;;;;31.87;59.32;100698.75;1751678;81;20956;-46
2022/08/06 10:55:06;;;;;;;6.47;3.87;;;;;;;32.14;55.20;100694.98;1751932;82;21506;-46
2022/08/06 10:57:33;;;;;;;7.10;3.40;;;;;;;32.15;53.88;100687.28;1751834;82;21521;-46
2022/08/06 11:00:01;;;;;;;5.65;3.87;;;;;;;32.07;53.66;100689.44;1752034;82;20936;-45
2022/08/06 11:02:51;;;;;;;4.47;3.40;;;;;;;31.95;54.31;100689.40;1751951;81;21050;-45
2022/08/06 11:05:21;;;;;;;10.25;4.03;;;;;;;31.98;56.27;100689.09;1751906;82;20964;-45
2022/08/06 11:08:21;;;;;;;6.12;3.40;;;;;;;32.23;53.65;100687.80;1745654;82;21071;-45
2022/08/06 11:11:16;;;;;;;6.25;3.67;;;;;;;32.18;53.97;100688.29;1743638;82;21019;-44
2022/08/06 11:14:03;;;;;;;4.87;3.83;;;;;;;32.19;53.07;100683.75;1743543;82;20976;-45
2022/08/06 11:16:31;;;;;;;7.08;3.58;;;;;;;32.18;53.57;100683.42;1743481;82;21225;-45
2022/08/06 11:19:02;;;;;;;9.43;4.00;;;;;;;32.25;53.09;100688.47;1743668;82;20920;-46
2022/08/06 11:21:46;;;;;;;4.67;3.67;;;;;;;32.28;53.05;100684.13;1741976;82;21031;-45
2022/08/06 11:24:14;;;;;;;6.72;4.20;;;;;;;32.31;55.29;100690.48;1743328;82;20959;-46
2022/08/06 11:26:44;;;;;;;6.87;3.60;;;;;;;32.32;51.88;100690.84;1743582;82;21327;-45
2022/08/06 11:29:12;;;;;;;3.85;3.50;;;;;;;32.30;49.73;100676.76;1743524;82;21256;-45
2022/08/06 11:31:48;;;;;;;4.72;3.55;;;;;;;32.19;49.09;100687.77;1743489;82;20936;-45
2022/08/06 11:34:20;;;;;;;4.03;3.62;;;;;;;32.02;50.92;100686.91;1743905;82;20983;-45
2022/08/06 11:36:53;;;;;;;4.05;3.72;;;;;;;32.21;52.75;100682.60;1743649;82;21498;-45
2022/08/06 11:39:20;;;;;;;12.50;4.05;;;;;;;32.57;50.21;100677.95;1743967;82;21027;-45